Iliamna, AK (99606)

12:56 AM AKDT on August 27, 2014 (GMT -0800)
Iliamna | Change Station
CLOSE
Current Station
Airport
Location: Iliamna,
Elevation: 161 ft
Nearby Weather Stations

Elev 161 ft 59.75 °N, 154.91 °W | Updated 44 minutes ago

Overcast
Overcast
56 °F
Feels Like 56 °F
N
9
Wind Variable Wind from WSW

Today
High -- | Low -- °F
--% Chance of Precip.
Yesterday
High -- | Low -- °F
Precip. -- in
7:06 AM 9:37 PM
Waxing Crescent, 3% visible
Pressure 29.94 in
Visibility 10.0 miles
Clouds Mostly Cloudy 1000 ft
Mostly Cloudy 4700 ft
Overcast 5500 ft
Dew Point 54 °F
Humidity 93%
Rainfall 0.00 in
Snow Depth Not available.
UV 0 out of 12
Pollen Not available.
Air Quality Not available.
Flu Activity Not available.
SPECI PAIL 270812Z AUTO 24008KT 10SM BKN010 BKN047 OVC055 13/12 A2994 RMK AO2 T01330122 PWINO TSNO $

More Conditions Fewer Conditions

Pressure 29.94 in
Visibility 10.0 miles
Clouds Mostly Cloudy 1000 ft
Mostly Cloudy 4700 ft
Overcast 5500 ft
Dew Point 54 °F
Humidity 93%
Rainfall 0.00 in
Snow Depth Not available.
UV 0 out of 12
Pollen Not available.
Air Quality Not available.
Flu Activity Not available.
SPECI PAIL 270812Z AUTO 24008KT 10SM BKN010 BKN047 OVC055 13/12 A2994 RMK AO2 T01330122 PWINO TSNO $

More Conditions Fewer Conditions

10-Day Weather Forecast

Almanac

Astronomy

Aug. 27, 2014 Rise Set
Actual Time 7:06 AM AKDT 9:37 PM AKDT
Civil Twilight 6:20 AM AKDT 10:22 PM AKDT
Nautical Twilight 5:19 AM AKDT 11:22 PM AKDT
Astronomical Twilight 3:54 AM AKDT 12:44 AM AKDT
Moon 9:54 AM AKDT 9:47 PM AKDT
Length of Visible Light 16h 02m
Length of Day
14h 31m
Tomorrow will be 5m 15s shorter.
Waxing Crescent, 3% of the Moon is Illuminated
Today
Waxing Crescent
Sep 2
First Quarter
Sep 8
Full
Sep 15
Last Quarter
Sep 24
New

Today's Extremes

State Highs State Lows

Community

WunderPhotos

Upload Photos

1,747,657 photos uploaded!

Nearby

Snow Depth

Station Depth Elevation
Mcneil Canyon 1 in 1320 ft
Port Graham 0 in 300 ft
MF Bradley River 3 in 2300 ft
Nuka Glacier 164 in 1250 ft
Cooper Lake 18 in 1200 ft

Earthquake Activity

City Distance Mag. Time & Date
No recent earthquake activity has been reported nearby.
Minimum magnitude displayed is 2.5.

Coastal Water Temperatures

Place Temperature
No Stations Reporting

Nearby Weather Stations